sensor_id;sensor_type;location;lat;lon;timestamp;pressure;altitude;pressure_sealevel;temperature
76007;BMP280;64699;0.000;0.000;2024-02-28T00:01:20;100456.41;;;19.71
76007;BMP280;64699;0.000;0.000;2024-02-28T00:03:45;100475.94;;;19.73
76007;BMP280;64699;0.000;0.000;2024-02-28T00:06:11;100470.41;;;19.73
76007;BMP280;64699;0.000;0.000;2024-02-28T00:08:37;100464.91;;;19.73
76007;BMP280;64699;0.000;0.000;2024-02-28T00:11:02;100475.16;;;19.72
76007;BMP280;64699;0.000;0.000;2024-02-28T00:13:27;100483.44;;;19.72
76007;BMP280;64699;0.000;0.000;2024-02-28T00:15:52;100480.69;;;19.72
76007;BMP280;64699;0.000;0.000;2024-02-28T00:18:17;100470.41;;;19.73
76007;BMP280;64699;0.000;0.000;2024-02-28T00:20:44;100475.94;;;19.73
76007;BMP280;64699;0.000;0.000;2024-02-28T00:23:09;100478.09;;;19.74
76007;BMP280;64699;0.000;0.000;2024-02-28T00:25:35;100475.94;;;19.73
76007;BMP280;64699;0.000;0.000;2024-02-28T00:28:00;100481.84;;;19.77
76007;BMP280;64699;0.000;0.000;2024-02-28T00:30:25;100469.53;;;19.78
76007;BMP280;64699;0.000;0.000;2024-02-28T00:32:52;100478.72;;;19.80
76007;BMP280;64699;0.000;0.000;2024-02-28T00:35:18;100475.25;;;19.80
76007;BMP280;64699;0.000;0.000;2024-02-28T00:37:43;100484.78;;;19.79
76007;BMP280;64699;0.000;0.000;2024-02-28T00:40:08;100488.28;;;19.79
76007;BMP280;64699;0.000;0.000;2024-02-28T00:42:34;100489.03;;;19.80
76007;BMP280;64699;0.000;0.000;2024-02-28T00:44:59;100478.56;;;19.78
76007;BMP280;64699;0.000;0.000;2024-02-28T00:47:24;100488.81;;;19.78
76007;BMP280;64699;0.000;0.000;2024-02-28T00:49:50;100484.59;;;19.77
76007;BMP280;64699;0.000;0.000;2024-02-28T00:52:15;100485.84;;;19.76
76007;BMP280;64699;0.000;0.000;2024-02-28T00:54:41;100481.09;;;19.76
76007;BMP280;64699;0.000;0.000;2024-02-28T00:57:06;100490.66;;;19.75
76007;BMP280;64699;0.000;0.000;2024-02-28T00:59:31;100484.38;;;19.75
76007;BMP280;64699;0.000;0.000;2024-02-28T01:01:56;100484.91;;;19.73
76007;BMP280;64699;0.000;0.000;2024-02-28T01:04:21;100489.88;;;19.75
76007;BMP280;64699;0.000;0.000;2024-02-28T01:06:47;100490.44;;;19.73
76007;BMP280;64699;0.000;0.000;2024-02-28T01:09:12;100493.94;;;19.74
76007;BMP280;64699;0.000;0.000;2024-02-28T01:11:37;100486.97;;;19.73
76007;BMP280;64699;0.000;0.000;2024-02-28T01:14:02;100488.22;;;19.72
76007;BMP280;64699;0.000;0.000;2024-02-28T01:16:27;100497.97;;;19.73
76007;BMP280;64699;0.000;0.000;2024-02-28T01:18:53;100494.97;;;19.71
76007;BMP280;64699;0.000;0.000;2024-02-28T01:21:18;100499.25;;;19.72
76007;BMP280;64699;0.000;0.000;2024-02-28T01:23:44;100494.97;;;19.71
76007;BMP280;64699;0.000;0.000;2024-02-28T01:26:09;100499.78;;;19.70
76007;BMP280;64699;0.000;0.000;2024-02-28T01:28:34;100499.03;;;19.70
76007;BMP280;64699;0.000;0.000;2024-02-28T01:30:59;100498.31;;;19.69
76007;BMP280;64699;0.000;0.000;2024-02-28T01:33:26;100503.06;;;19.69
76007;BMP280;64699;0.000;0.000;2024-02-28T01:35:51;100506.59;;;19.69
76007;BMP280;64699;0.000;0.000;2024-02-28T01:38:16;100513.38;;;19.68
76007;BMP280;64699;0.000;0.000;2024-02-28T01:40:47;100514.66;;;19.67
76007;BMP280;64699;0.000;0.000;2024-02-28T01:43:13;100509.69;;;19.66
76007;BMP280;64699;0.000;0.000;2024-02-28T01:45:38;100514.66;;;19.67
76007;BMP280;64699;0.000;0.000;2024-02-28T01:48:03;100516.66;;;19.67
76007;BMP280;64699;0.000;0.000;2024-02-28T01:50:30;100517.94;;;19.66
76007;BMP280;64699;0.000;0.000;2024-02-28T01:52:55;100523.25;;;19.64
76007;BMP280;64699;0.000;0.000;2024-02-28T01:55:21;100523.97;;;19.64
76007;BMP280;64699;0.000;0.000;2024-02-28T01:57:46;100523.25;;;19.64
76007;BMP280;64699;0.000;0.000;2024-02-28T02:00:11;100529.50;;;19.64
76007;BMP280;64699;0.000;0.000;2024-02-28T02:02:37;100537.25;;;19.66
76007;BMP280;64699;0.000;0.000;2024-02-28T02:05:02;100530.44;;;19.67
76007;BMP280;64699;0.000;0.000;2024-02-28T02:07:28;100529.16;;;19.68
76007;BMP280;64699;0.000;0.000;2024-02-28T02:09:53;100544.22;;;19.67
76007;BMP280;64699;0.000;0.000;2024-02-28T02:12:19;100542.75;;;19.66
76007;BMP280;64699;0.000;0.000;2024-02-28T02:14:47;100537.25;;;19.66
76007;BMP280;64699;0.000;0.000;2024-02-28T02:17:13;100539.25;;;19.65
76007;BMP280;64699;0.000;0.000;2024-02-28T02:19:38;100535.75;;;19.65
76007;BMP280;64699;0.000;0.000;2024-02-28T02:22:04;100528.75;;;19.64
76007;BMP280;64699;0.000;0.000;2024-02-28T02:24:30;100510.72;;;19.63
76007;BMP280;64699;0.000;0.000;2024-02-28T02:26:58;100510.72;;;19.63
76007;BMP280;64699;0.000;0.000;2024-02-28T02:29:24;100510.72;;;19.63
76007;BMP280;64699;0.000;0.000;2024-02-28T02:31:49;100509.97;;;19.62
76007;BMP280;64699;0.000;0.000;2024-02-28T02:34:14;100496.19;;;19.62
76007;BMP280;64699;0.000;0.000;2024-02-28T02:36:39;100489.94;;;19.62
76007;BMP280;64699;0.000;0.000;2024-02-28T02:39:04;100484.41;;;19.62
76007;BMP280;64699;0.000;0.000;2024-02-28T02:41:31;100498.19;;;19.62
76007;BMP280;64699;0.000;0.000;2024-02-28T02:43:56;100500.97;;;19.62
76007;BMP280;64699;0.000;0.000;2024-02-28T02:46:23;100503.72;;;19.62
76007;BMP280;64699;0.000;0.000;2024-02-28T02:48:48;100499.50;;;19.61
76007;BMP280;64699;0.000;0.000;2024-02-28T02:51:13;100489.94;;;19.62
76007;BMP280;64699;0.000;0.000;2024-02-28T02:53:38;100485.00;;;19.60
76007;BMP280;64699;0.000;0.000;2024-02-28T02:56:03;100485.00;;;19.60
76007;BMP280;64699;0.000;0.000;2024-02-28T02:58:29;100485.72;;;19.61
76007;BMP280;64699;0.000;0.000;2024-02-28T03:00:54;100480.72;;;19.59
76007;BMP280;64699;0.000;0.000;2024-02-28T03:03:19;100496.03;;;19.60
76007;BMP280;64699;0.000;0.000;2024-02-28T03:05:44;100500.03;;;19.59
76007;BMP280;64699;0.000;0.000;2024-02-28T03:08:09;100497.25;;;19.59
76007;BMP280;64699;0.000;0.000;2024-02-28T03:10:35;100506.28;;;19.60
76007;BMP280;64699;0.000;0.000;2024-02-28T03:13:00;100499.28;;;19.59
76007;BMP280;64699;0.000;0.000;2024-02-28T03:15:26;100503.31;;;19.58
76007;BMP280;64699;0.000;0.000;2024-02-28T03:17:52;100513.63;;;19.57
76007;BMP280;64699;0.000;0.000;2024-02-28T03:20:17;100511.59;;;19.58
76007;BMP280;64699;0.000;0.000;2024-02-28T03:22:42;100508.09;;;19.57
76007;BMP280;64699;0.000;0.000;2024-02-28T03:25:07;100519.13;;;19.57
76007;BMP280;64699;0.000;0.000;2024-02-28T03:27:33;100514.34;;;19.58
76007;BMP280;64699;0.000;0.000;2024-02-28T03:29:58;100515.66;;;19.57
76007;BMP280;64699;0.000;0.000;2024-02-28T03:32:23;100518.41;;;19.57
76007;BMP280;64699;0.000;0.000;2024-02-28T03:34:49;100516.91;;;19.56
76007;BMP280;64699;0.000;0.000;2024-02-28T03:37:14;100511.41;;;19.56
76007;BMP280;64699;0.000;0.000;2024-02-28T03:39:39;100513.41;;;19.55
76007;BMP280;64699;0.000;0.000;2024-02-28T03:42:04;100520.91;;;19.55
76007;BMP280;64699;0.000;0.000;2024-02-28T03:44:30;100520.91;;;19.55
76007;BMP280;64699;0.000;0.000;2024-02-28T03:46:55;100519.66;;;19.56
76007;BMP280;64699;0.000;0.000;2024-02-28T03:49:20;100516.91;;;19.56
76007;BMP280;64699;0.000;0.000;2024-02-28T03:51:45;100516.91;;;19.56
76007;BMP280;64699;0.000;0.000;2024-02-28T03:54:10;100512.56;;;19.60
76007;BMP280;64699;0.000;0.000;2024-02-28T03:56:36;100508.84;;;19.58
76007;BMP280;64699;0.000;0.000;2024-02-28T03:59:01;100501.88;;;19.57
76007;BMP280;64699;0.000;0.000;2024-02-28T04:01:26;100503.13;;;19.56
76007;BMP280;64699;0.000;0.000;2024-02-28T04:03:51;100492.63;;;19.54
76007;BMP280;64699;0.000;0.000;2024-02-28T04:06:17;100495.94;;;19.53
76007;BMP280;64699;0.000;0.000;2024-02-28T04:08:42;100500.72;;;19.52
76007;BMP280;64699;0.000;0.000;2024-02-28T04:11:07;100499.97;;;19.52
76007;BMP280;64699;0.000;0.000;2024-02-28T04:13:32;100493.69;;;19.51
76007;BMP280;64699;0.000;0.000;2024-02-28T04:15:58;100492.97;;;19.51
76007;BMP280;64699;0.000;0.000;2024-02-28T04:18:23;100499.75;;;19.50
76007;BMP280;64699;0.000;0.000;2024-02-28T04:20:48;100507.25;;;19.49
76007;BMP280;64699;0.000;0.000;2024-02-28T04:23:13;100510.03;;;19.49
76007;BMP280;64699;0.000;0.000;2024-02-28T04:25:38;100522.34;;;19.48
76007;BMP280;64699;0.000;0.000;2024-02-28T04:28:05;100523.06;;;19.49
76007;BMP280;64699;0.000;0.000;2024-02-28T04:30:31;100527.84;;;19.48
76007;BMP280;64699;0.000;0.000;2024-02-28T04:32:56;100516.81;;;19.48
76007;BMP280;64699;0.000;0.000;2024-02-28T04:35:21;100526.38;;;19.47
76007;BMP280;64699;0.000;0.000;2024-02-28T04:37:47;100524.38;;;19.48
76007;BMP280;64699;0.000;0.000;2024-02-28T04:40:12;100514.81;;;19.49
76007;BMP280;64699;0.000;0.000;2024-02-28T04:42:37;100523.78;;;19.49
76007;BMP280;64699;0.000;0.000;2024-02-28T04:45:03;100529.31;;;19.49
76007;BMP280;64699;0.000;0.000;2024-02-28T04:47:28;100523.28;;;19.51
76007;BMP280;64699;0.000;0.000;2024-02-28T04:49:54;100520.00;;;19.52
76007;BMP280;64699;0.000;0.000;2024-02-28T04:52:19;100525.69;;;19.54
76007;BMP280;64699;0.000;0.000;2024-02-28T04:54:44;100529.44;;;19.57
76007;BMP280;64699;0.000;0.000;2024-02-28T04:57:10;100528.84;;;19.58
76007;BMP280;64699;0.000;0.000;2024-02-28T04:59:35;100525.06;;;19.61
76007;BMP280;64699;0.000;0.000;2024-02-28T05:02:00;100541.28;;;19.65
76007;BMP280;64699;0.000;0.000;2024-02-28T05:04:26;100542.94;;;19.68
76007;BMP280;64699;0.000;0.000;2024-02-28T05:06:51;100550.13;;;19.71
76007;BMP280;64699;0.000;0.000;2024-02-28T05:09:17;100549.78;;;19.74
76007;BMP280;64699;0.000;0.000;2024-02-28T05:11:43;100559.22;;;19.79
76007;BMP280;64699;0.000;0.000;2024-02-28T05:14:09;100548.41;;;19.81
76007;BMP280;64699;0.000;0.000;2024-02-28T05:16:35;100557.84;;;19.85
76007;BMP280;64699;0.000;0.000;2024-02-28T05:19:00;100549.22;;;19.89
76007;BMP280;64699;0.000;0.000;2024-02-28T05:21:26;100559.16;;;19.92
76007;BMP280;64699;0.000;0.000;2024-02-28T05:23:51;100553.31;;;19.95
76007;BMP280;64699;0.000;0.000;2024-02-28T05:26:16;100559.78;;;19.98
76007;BMP280;64699;0.000;0.000;2024-02-28T05:28:41;100555.94;;;20.00
76007;BMP280;64699;0.000;0.000;2024-02-28T05:31:23;100559.13;;;20.04
76007;BMP280;64699;0.000;0.000;2024-02-28T05:33:52;100563.97;;;20.11
76007;BMP280;64699;0.000;0.000;2024-02-28T05:36:19;100573.72;;;20.12
76007;BMP280;64699;0.000;0.000;2024-02-28T05:38:44;100579.97;;;20.13
76007;BMP280;64699;0.000;0.000;2024-02-28T05:41:09;100574.44;;;20.13
76007;BMP280;64699;0.000;0.000;2024-02-28T05:43:36;100579.22;;;20.12
76007;BMP280;64699;0.000;0.000;2024-02-28T05:46:02;100578.91;;;20.16
76007;BMP280;64699;0.000;0.000;2024-02-28T05:48:27;100576.34;;;20.18
76007;BMP280;64699;0.000;0.000;2024-02-28T05:50:53;100575.19;;;20.13
76007;BMP280;64699;0.000;0.000;2024-02-28T05:53:18;100583.47;;;20.13
76007;BMP280;64699;0.000;0.000;2024-02-28T05:55:44;100582.97;;;20.15
76007;BMP280;64699;0.000;0.000;2024-02-28T05:58:09;100590.25;;;20.12
76007;BMP280;64699;0.000;0.000;2024-02-28T06:00:34;100597.28;;;20.13
76007;BMP280;64699;0.000;0.000;2024-02-28T06:03:00;100593.91;;;20.28
76007;BMP280;64699;0.000;0.000;2024-02-28T06:05:25;100595.44;;;20.36
76007;BMP280;64699;0.000;0.000;2024-02-28T06:07:50;100587.13;;;20.29
76007;BMP280;64699;0.000;0.000;2024-02-28T06:10:16;100599.56;;;20.22
76007;BMP280;64699;0.000;0.000;2024-02-28T06:12:41;100602.09;;;20.20
76007;BMP280;64699;0.000;0.000;2024-02-28T06:15:06;100603.19;;;20.17
76007;BMP280;64699;0.000;0.000;2024-02-28T06:17:31;100599.50;;;20.15
76007;BMP280;64699;0.000;0.000;2024-02-28T06:19:57;100609.78;;;20.14
76007;BMP280;64699;0.000;0.000;2024-02-28T06:22:22;100608.31;;;20.13
76007;BMP280;64699;0.000;0.000;2024-02-28T06:24:47;100605.38;;;20.11
76007;BMP280;64699;0.000;0.000;2024-02-28T06:27:12;100605.88;;;20.10
76007;BMP280;64699;0.000;0.000;2024-02-28T06:29:41;100603.88;;;20.10
76007;BMP280;64699;0.000;0.000;2024-02-28T06:32:06;100604.41;;;20.09
76007;BMP280;64699;0.000;0.000;2024-02-28T06:34:31;100600.88;;;20.08
76007;BMP280;64699;0.000;0.000;2024-02-28T06:36:57;100603.63;;;20.08
76007;BMP280;64699;0.000;0.000;2024-02-28T06:39:22;100608.25;;;20.06
76007;BMP280;64699;0.000;0.000;2024-02-28T06:41:47;100623.28;;;20.05
76007;BMP280;64699;0.000;0.000;2024-02-28T06:44:14;100619.13;;;17.15
76007;BMP280;64699;0.000;0.000;2024-02-28T06:46:39;100623.72;;;18.72
76007;BMP280;64699;0.000;0.000;2024-02-28T06:49:04;100618.91;;;19.43
76007;BMP280;64699;0.000;0.000;2024-02-28T06:51:30;100624.47;;;19.76
76007;BMP280;64699;0.000;0.000;2024-02-28T06:53:55;100620.91;;;19.89
76007;BMP280;64699;0.000;0.000;2024-02-28T06:56:20;100627.59;;;19.93
76007;BMP280;64699;0.000;0.000;2024-02-28T06:58:45;100623.56;;;19.94
76007;BMP280;64699;0.000;0.000;2024-02-28T07:01:11;100629.81;;;19.95
76007;BMP280;64699;0.000;0.000;2024-02-28T07:03:36;100628.31;;;19.94
76007;BMP280;64699;0.000;0.000;2024-02-28T07:06:01;100636.59;;;19.94
76007;BMP280;64699;0.000;0.000;2024-02-28T07:08:26;100633.81;;;19.94
76007;BMP280;64699;0.000;0.000;2024-02-28T07:10:52;100634.59;;;19.94
76007;BMP280;64699;0.000;0.000;2024-02-28T07:13:19;100636.53;;;19.86
76007;BMP280;64699;0.000;0.000;2024-02-28T07:15:44;100637.13;;;19.92
76007;BMP280;64699;0.000;0.000;2024-02-28T07:18:09;100635.09;;;19.93
76007;BMP280;64699;0.000;0.000;2024-02-28T07:20:35;100639.34;;;19.94
76007;BMP280;64699;0.000;0.000;2024-02-28T07:23:00;100650.38;;;19.94
76007;BMP280;64699;0.000;0.000;2024-02-28T07:25:25;100647.41;;;19.92
76007;BMP280;64699;0.000;0.000;2024-02-28T07:27:50;100656.22;;;19.90
76007;BMP280;64699;0.000;0.000;2024-02-28T07:30:16;100648.50;;;19.89
76007;BMP280;64699;0.000;0.000;2024-02-28T07:32:41;100648.50;;;19.89
76007;BMP280;64699;0.000;0.000;2024-02-28T07:35:08;100652.53;;;19.88
76007;BMP280;64699;0.000;0.000;2024-02-28T07:37:33;100648.50;;;19.89
76007;BMP280;64699;0.000;0.000;2024-02-28T07:39:59;100651.06;;;19.87
76007;BMP280;64699;0.000;0.000;2024-02-28T07:42:24;100658.59;;;19.86
76007;BMP280;64699;0.000;0.000;2024-02-28T07:44:50;100660.56;;;19.86
76007;BMP280;64699;0.000;0.000;2024-02-28T07:47:18;100653.59;;;19.85
76007;BMP280;64699;0.000;0.000;2024-02-28T07:49:44;100647.34;;;19.84
76007;BMP280;64699;0.000;0.000;2024-02-28T07:52:09;100654.84;;;19.84
76007;BMP280;64699;0.000;0.000;2024-02-28T07:54:34;100658.38;;;19.84
76007;BMP280;64699;0.000;0.000;2024-02-28T07:57:01;100659.09;;;19.85
76007;BMP280;64699;0.000;0.000;2024-02-28T07:59:27;100658.38;;;19.84
76007;BMP280;64699;0.000;0.000;2024-02-28T08:01:52;100654.66;;;19.82
76007;BMP280;64699;0.000;0.000;2024-02-28T08:04:17;100659.41;;;19.81
76007;BMP280;64699;0.000;0.000;2024-02-28T08:06:42;100657.22;;;19.80
76007;BMP280;64699;0.000;0.000;2024-02-28T08:09:08;100660.69;;;19.80
76007;BMP280;64699;0.000;0.000;2024-02-28T08:11:33;100657.22;;;19.80
76007;BMP280;64699;0.000;0.000;2024-02-28T08:13:58;100659.97;;;19.80
76007;BMP280;64699;0.000;0.000;2024-02-28T08:16:23;100664.53;;;19.77
76007;BMP280;64699;0.000;0.000;2024-02-28T08:18:49;100661.03;;;19.77
76007;BMP280;64699;0.000;0.000;2024-02-28T08:21:14;100663.78;;;19.77
76007;BMP280;64699;0.000;0.000;2024-02-28T08:23:39;100668.03;;;19.78
76007;BMP280;64699;0.000;0.000;2024-02-28T08:26:04;100669.28;;;19.77
76007;BMP280;64699;0.000;0.000;2024-02-28T08:28:30;100663.78;;;19.77
76007;BMP280;64699;0.000;0.000;2024-02-28T08:30:55;100669.28;;;19.77
76007;BMP280;64699;0.000;0.000;2024-02-28T08:33:20;100667.81;;;19.76
76007;BMP280;64699;0.000;0.000;2024-02-28T08:35:45;100671.84;;;19.75
76007;BMP280;64699;0.000;0.000;2024-02-28T08:38:10;100670.38;;;19.74
76007;BMP280;64699;0.000;0.000;2024-02-28T08:40:36;100670.38;;;19.74
76007;BMP280;64699;0.000;0.000;2024-02-28T08:43:01;100670.38;;;19.74
76007;BMP280;64699;0.000;0.000;2024-02-28T08:45:26;100669.63;;;19.73
76007;BMP280;64699;0.000;0.000;2024-02-28T08:47:51;100663.13;;;19.71
76007;BMP280;64699;0.000;0.000;2024-02-28T08:50:18;100661.91;;;19.72
76007;BMP280;64699;0.000;0.000;2024-02-28T08:52:43;100674.91;;;19.71
76007;BMP280;64699;0.000;0.000;2024-02-28T08:55:08;100665.72;;;19.69
76007;BMP280;64699;0.000;0.000;2024-02-28T08:57:34;100656.16;;;19.70
76007;BMP280;64699;0.000;0.000;2024-02-28T08:59:59;100656.16;;;19.70
76007;BMP280;64699;0.000;0.000;2024-02-28T09:02:24;100663.72;;;19.69
76007;BMP280;64699;0.000;0.000;2024-02-28T09:04:49;100668.47;;;19.69
76007;BMP280;64699;0.000;0.000;2024-02-28T09:07:17;100678.75;;;19.68
76007;BMP280;64699;0.000;0.000;2024-02-28T09:09:44;100675.47;;;19.70
76007;BMP280;64699;0.000;0.000;2024-02-28T09:12:10;100680.34;;;19.64
76007;BMP280;64699;0.000;0.000;2024-02-28T09:14:35;100682.78;;;19.67
76007;BMP280;64699;0.000;0.000;2024-02-28T09:17:00;100683.94;;;19.72
76007;BMP280;64699;0.000;0.000;2024-02-28T09:19:29;100682.69;;;19.73
76007;BMP280;64699;0.000;0.000;2024-02-28T09:21:54;100676.91;;;19.71
76007;BMP280;64699;0.000;0.000;2024-02-28T09:24:19;100694.22;;;19.71
76007;BMP280;64699;0.000;0.000;2024-02-28T09:26:44;100685.75;;;19.69
76007;BMP280;64699;0.000;0.000;2024-02-28T09:29:09;100689.03;;;19.68
76007;BMP280;64699;0.000;0.000;2024-02-28T09:31:35;100689.03;;;19.68
76007;BMP280;64699;0.000;0.000;2024-02-28T09:34:00;100691.59;;;19.66
76007;BMP280;64699;0.000;0.000;2024-02-28T09:36:29;100687.53;;;19.67
76007;BMP280;64699;0.000;0.000;2024-02-28T09:38:54;100690.84;;;19.65
76007;BMP280;64699;0.000;0.000;2024-02-28T09:41:19;100699.88;;;19.66
76007;BMP280;64699;0.000;0.000;2024-02-28T09:43:45;100690.84;;;19.65
76007;BMP280;64699;0.000;0.000;2024-02-28T09:46:11;100693.38;;;19.63
76007;BMP280;64699;0.000;0.000;2024-02-28T09:48:40;100694.88;;;19.64
76007;BMP280;64699;0.000;0.000;2024-02-28T09:51:06;100700.16;;;19.62
76007;BMP280;64699;0.000;0.000;2024-02-28T09:53:31;100699.41;;;19.62
76007;BMP280;64699;0.000;0.000;2024-02-28T09:55:56;100701.47;;;19.61
76007;BMP280;64699;0.000;0.000;2024-02-28T09:58:21;100695.19;;;19.61
76007;BMP280;64699;0.000;0.000;2024-02-28T10:00:47;100698.47;;;19.59
76007;BMP280;64699;0.000;0.000;2024-02-28T10:03:13;100695.69;;;19.59
76007;BMP280;64699;0.000;0.000;2024-02-28T10:05:39;100700.47;;;19.59
76007;BMP280;64699;0.000;0.000;2024-02-28T10:08:05;100699.00;;;19.58
76007;BMP280;64699;0.000;0.000;2024-02-28T10:10:31;100701.75;;;19.58
76007;BMP280;64699;0.000;0.000;2024-02-28T10:12:56;100696.25;;;19.58
76007;BMP280;64699;0.000;0.000;2024-02-28T10:15:21;100698.28;;;19.57
76007;BMP280;64699;0.000;0.000;2024-02-28T10:17:47;100700.31;;;19.57
76007;BMP280;64699;0.000;0.000;2024-02-28T10:20:13;100697.28;;;19.55
76007;BMP280;64699;0.000;0.000;2024-02-28T10:22:38;100701.56;;;19.56
76007;BMP280;64699;0.000;0.000;2024-02-28T10:25:04;100700.81;;;19.55
76007;BMP280;64699;0.000;0.000;2024-02-28T10:27:33;100700.31;;;19.57
76007;BMP280;64699;0.000;0.000;2024-02-28T10:29:58;100708.31;;;19.55
76007;BMP280;64699;0.000;0.000;2024-02-28T10:32:24;100707.59;;;19.54
76007;BMP280;64699;0.000;0.000;2024-02-28T10:34:49;100711.63;;;19.53
76007;BMP280;64699;0.000;0.000;2024-02-28T10:37:14;100706.66;;;19.52
76007;BMP280;64699;0.000;0.000;2024-02-28T10:39:39;100704.06;;;19.54
76007;BMP280;64699;0.000;0.000;2024-02-28T10:42:05;100702.81;;;19.55
76007;BMP280;64699;0.000;0.000;2024-02-28T10:44:31;100702.06;;;19.54
76007;BMP280;64699;0.000;0.000;2024-02-28T10:46:58;100708.56;;;19.57
76007;BMP280;64699;0.000;0.000;2024-02-28T10:49:24;100701.75;;;19.58
76007;BMP280;64699;0.000;0.000;2024-02-28T10:51:50;100693.72;;;19.60
76007;BMP280;64699;0.000;0.000;2024-02-28T10:54:17;100695.94;;;19.61
76007;BMP280;64699;0.000;0.000;2024-02-28T10:56:44;100712.69;;;19.63
76007;BMP280;64699;0.000;0.000;2024-02-28T10:59:09;100702.81;;;19.68
76007;BMP280;64699;0.000;0.000;2024-02-28T11:01:35;100702.31;;;19.69
76007;BMP280;64699;0.000;0.000;2024-02-28T11:04:02;100705.25;;;19.71
76007;BMP280;64699;0.000;0.000;2024-02-28T11:06:28;100708.22;;;19.73
76007;BMP280;64699;0.000;0.000;2024-02-28T11:08:53;100709.16;;;19.76
76007;BMP280;64699;0.000;0.000;2024-02-28T11:11:19;100707.88;;;19.77
76007;BMP280;64699;0.000;0.000;2024-02-28T11:13:53;100699.84;;;19.79
76007;BMP280;64699;0.000;0.000;2024-02-28T11:16:25;100701.31;;;19.80
76007;BMP280;64699;0.000;0.000;2024-02-28T11:18:50;100697.28;;;19.81
76007;BMP280;64699;0.000;0.000;2024-02-28T11:21:16;100705.03;;;19.82
76007;BMP280;64699;0.000;0.000;2024-02-28T11:23:41;100705.03;;;19.82
76007;BMP280;64699;0.000;0.000;2024-02-28T11:26:11;100701.72;;;19.84
76007;BMP280;64699;0.000;0.000;2024-02-28T11:28:37;100710.00;;;19.84
76007;BMP280;64699;0.000;0.000;2024-02-28T11:31:02;100705.97;;;19.85
76007;BMP280;64699;0.000;0.000;2024-02-28T11:33:27;100712.25;;;19.85
76007;BMP280;64699;0.000;0.000;2024-02-28T11:35:59;100708.97;;;19.87
76007;BMP280;64699;0.000;0.000;2024-02-28T11:38:24;100712.97;;;19.86
76007;BMP280;64699;0.000;0.000;2024-02-28T11:40:50;100717.75;;;19.85
76007;BMP280;64699;0.000;0.000;2024-02-28T11:43:15;100715.50;;;19.84
76007;BMP280;64699;0.000;0.000;2024-02-28T11:45:40;100715.72;;;19.86
76007;BMP280;64699;0.000;0.000;2024-02-28T11:48:08;100714.34;;;19.79
76007;BMP280;64699;0.000;0.000;2024-02-28T11:50:34;100716.41;;;19.66
76007;BMP280;64699;0.000;0.000;2024-02-28T11:52:59;100713.19;;;19.62
76007;BMP280;64699;0.000;0.000;2024-02-28T11:55:26;100713.09;;;19.54
76007;BMP280;64699;0.000;0.000;2024-02-28T11:57:52;100713.00;;;19.60
76007;BMP280;64699;0.000;0.000;2024-02-28T12:00:17;100712.25;;;19.59
76007;BMP280;64699;0.000;0.000;2024-02-28T12:02:42;100696.88;;;19.51
76007;BMP280;64699;0.000;0.000;2024-02-28T12:05:08;100702.19;;;19.49
76007;BMP280;64699;0.000;0.000;2024-02-28T12:07:34;100706.97;;;19.61
76007;BMP280;64699;0.000;0.000;2024-02-28T12:09:59;100710.44;;;19.75
76007;BMP280;64699;0.000;0.000;2024-02-28T12:12:25;100703.47;;;19.74
76007;BMP280;64699;0.000;0.000;2024-02-28T12:14:51;100706.41;;;19.37
76007;BMP280;64699;0.000;0.000;2024-02-28T12:17:17;100708.97;;;19.35
76007;BMP280;64699;0.000;0.000;2024-02-28T12:19:42;100707.38;;;19.39
76007;BMP280;64699;0.000;0.000;2024-02-28T12:22:08;100699.13;;;19.52
76007;BMP280;64699;0.000;0.000;2024-02-28T12:24:33;100704.41;;;19.63
76007;BMP280;64699;0.000;0.000;2024-02-28T12:26:59;100706.84;;;19.67
76007;BMP280;64699;0.000;0.000;2024-02-28T12:29:24;100706.50;;;19.70
76007;BMP280;64699;0.000;0.000;2024-02-28T12:31:49;100704.72;;;19.73
76007;BMP280;64699;0.000;0.000;2024-02-28T12:34:14;100708.97;;;19.74
76007;BMP280;64699;0.000;0.000;2024-02-28T12:36:42;100706.41;;;19.76
76007;BMP280;64699;0.000;0.000;2024-02-28T12:39:08;100704.63;;;19.78
76007;BMP280;64699;0.000;0.000;2024-02-28T12:41:36;100707.56;;;19.80
76007;BMP280;64699;0.000;0.000;2024-02-28T12:44:03;100713.84;;;19.81
76007;BMP280;64699;0.000;0.000;2024-02-28T12:46:28;100708.50;;;19.83
76007;BMP280;64699;0.000;0.000;2024-02-28T12:48:53;100711.47;;;19.85
76007;BMP280;64699;0.000;0.000;2024-02-28T12:54:03;100708.97;;;19.87
76007;BMP280;64699;0.000;0.000;2024-02-28T12:56:28;100709.47;;;19.85
76007;BMP280;64699;0.000;0.000;2024-02-28T12:58:53;100711.72;;;19.87
76007;BMP280;64699;0.000;0.000;2024-02-28T13:01:18;100717.44;;;19.89
76007;BMP280;64699;0.000;0.000;2024-02-28T13:03:44;100707.66;;;19.88
76007;BMP280;64699;0.000;0.000;2024-02-28T13:06:09;100706.22;;;19.87
76007;BMP280;64699;0.000;0.000;2024-02-28T13:08:34;100706.22;;;19.87
76007;BMP280;64699;0.000;0.000;2024-02-28T13:10:59;100709.16;;;19.89
76007;BMP280;64699;0.000;0.000;2024-02-28T13:13:24;100706.41;;;19.89
76007;BMP280;64699;0.000;0.000;2024-02-28T13:15:50;100711.72;;;19.87
76007;BMP280;64699;0.000;0.000;2024-02-28T13:18:15;100705.13;;;19.90
76007;BMP280;64699;0.000;0.000;2024-02-28T13:20:40;100711.16;;;19.88
76007;BMP280;64699;0.000;0.000;2024-02-28T13:23:05;100710.44;;;19.88
76007;BMP280;64699;0.000;0.000;2024-02-28T13:25:31;100716.47;;;19.86
76007;BMP280;64699;0.000;0.000;2024-02-28T13:27:56;100710.22;;;19.86
76007;BMP280;64699;0.000;0.000;2024-02-28T13:30:21;100718.69;;;19.88
76007;BMP280;64699;0.000;0.000;2024-02-28T13:32:47;100722.00;;;19.86
76007;BMP280;64699;0.000;0.000;2024-02-28T13:35:12;100731.03;;;19.87
76007;BMP280;64699;0.000;0.000;2024-02-28T13:37:38;100735.03;;;19.86
76007;BMP280;64699;0.000;0.000;2024-02-28T13:40:05;100729.94;;;19.90
76007;BMP280;64699;0.000;0.000;2024-02-28T13:42:31;100726.75;;;19.86
76007;BMP280;64699;0.000;0.000;2024-02-28T13:44:56;100733.97;;;19.76
76007;BMP280;64699;0.000;0.000;2024-02-28T13:47:21;100740.31;;;19.71
76007;BMP280;64699;0.000;0.000;2024-02-28T13:49:46;100733.56;;;19.72
76007;BMP280;64699;0.000;0.000;2024-02-28T13:52:12;100745.66;;;19.69
76007;BMP280;64699;0.000;0.000;2024-02-28T13:54:37;100743.44;;;19.67
76007;BMP280;64699;0.000;0.000;2024-02-28T13:57:03;100749.69;;;19.68
76007;BMP280;64699;0.000;0.000;2024-02-28T13:59:29;100737.16;;;19.67
76007;BMP280;64699;0.000;0.000;2024-02-28T14:01:55;100742.47;;;19.65